createdAt,value
2023-02-19T00:06:07.446Z,100958.94
2023-02-19T00:13:09.076Z,100952.34
2023-02-19T00:20:10.658Z,100953.06
2023-02-19T00:27:12.274Z,100944.75
2023-02-19T00:34:14.162Z,100945.22
2023-02-19T00:41:21.929Z,100928.22
2023-02-19T00:48:23.540Z,100922.16
2023-02-19T00:55:25.091Z,100929.13
2023-02-19T01:02:26.901Z,100922.22
2023-02-19T01:09:28.597Z,100913.75
2023-02-19T01:16:30.947Z,100909.44
2023-02-19T01:23:32.764Z,100896.75
2023-02-19T01:30:37.693Z,100878.19
2023-02-19T01:37:39.270Z,100856.47
2023-02-19T01:44:46.718Z,100866.63
2023-02-19T01:51:51.353Z,100857.97
2023-02-19T01:58:53.235Z,100859.34
2023-02-19T02:06:16.331Z,100846.63
2023-02-19T02:13:17.922Z,100818.97
2023-02-19T02:20:57.139Z,100832.75
2023-02-19T02:28:35.736Z,100838.25
2023-02-19T02:35:51.260Z,100838.16
2023-02-19T02:42:57.526Z,100829.88
2023-02-19T02:50:05.571Z,100830.06
2023-02-19T02:57:09.340Z,100834.66
2023-02-19T03:04:34.176Z,100843.22
2023-02-19T03:11:54.886Z,100842.38
2023-02-19T03:19:15.016Z,100854.97
2023-02-19T03:26:17.445Z,100861.94
2023-02-19T03:33:26.939Z,100876.59
2023-02-19T03:40:29.913Z,100864.09
2023-02-19T03:47:59.102Z,100880.19
2023-02-19T03:55:25.604Z,100887.25
2023-02-19T04:02:41.504Z,100878.53
2023-02-19T04:09:48.246Z,100889.28
2023-02-19T04:16:55.653Z,100907.31
2023-02-19T04:23:57.312Z,100907.28
2023-02-19T04:30:58.881Z,100912.72
2023-02-19T04:38:00.475Z,100917.25
2023-02-19T04:45:02.036Z,100922.44
2023-02-19T04:52:03.680Z,100926.22
2023-02-19T04:59:05.785Z,100941.38
2023-02-19T05:06:08.703Z,100943.47
2023-02-19T05:13:10.367Z,100949.91
2023-02-19T05:20:12.012Z,100945.28
2023-02-19T05:27:13.637Z,100932.25
2023-02-19T05:34:15.307Z,100936.09
2023-02-19T05:41:18.612Z,100937.50
2023-02-19T05:48:20.171Z,100947.56
2023-02-19T05:55:21.731Z,100954.84
2023-02-19T06:02:23.316Z,100958.97
2023-02-19T06:09:24.893Z,100953.66
2023-02-19T06:16:26.613Z,100948.72
2023-02-19T06:23:29.143Z,100951.69
2023-02-19T06:30:30.746Z,100953.50
2023-02-19T06:37:32.320Z,100980.19
2023-02-19T06:44:33.903Z,100998.16
2023-02-19T06:51:35.418Z,101007.88
2023-02-19T06:58:36.945Z,101024.09
2023-02-19T07:05:38.480Z,101025.81
2023-02-19T07:12:40.020Z,101034.59
2023-02-19T07:19:41.583Z,101036.38
2023-02-19T07:26:43.187Z,101058.34
2023-02-19T07:33:45.144Z,101073.56
2023-02-19T07:40:56.857Z,101086.66
2023-02-19T07:47:58.653Z,101092.41
2023-02-19T07:55:00.179Z,101102.16
2023-02-19T08:02:20.429Z,101115.66
2023-02-19T08:09:21.958Z,101139.75
2023-02-19T08:16:36.725Z,101148.16
2023-02-19T08:23:42.532Z,101164.56
2023-02-19T08:30:45.299Z,101179.38
2023-02-19T08:37:46.927Z,101198.81
2023-02-19T08:44:48.448Z,101206.44
2023-02-19T08:51:50.006Z,101213.59
2023-02-19T08:58:51.569Z,101222.19
2023-02-19T09:05:53.126Z,101223.72
2023-02-19T09:12:54.734Z,101248.22
2023-02-19T09:19:56.333Z,101253.91
2023-02-19T09:26:57.950Z,101268.03
2023-02-19T09:33:59.659Z,101269.19
2023-02-19T09:41:06.826Z,101281.88
2023-02-19T09:48:10.183Z,101284.78
2023-02-19T09:55:20.605Z,101294.91
2023-02-19T10:02:23.417Z,101303.25
2023-02-19T10:09:26.988Z,101303.84
2023-02-19T10:16:28.663Z,101322.25
2023-02-19T10:23:30.245Z,101338.78
2023-02-19T10:30:33.178Z,101344.34
2023-02-19T10:37:34.955Z,101350.00
2023-02-19T10:44:41.670Z,101358.47
2023-02-19T10:51:44.332Z,101367.72
2023-02-19T10:58:47.210Z,101371.50
2023-02-19T11:06:01.708Z,101380.88
2023-02-19T11:13:04.439Z,101379.38
2023-02-19T11:20:14.527Z,101391.16
2023-02-19T11:27:22.930Z,101409.50
2023-02-19T11:34:31.547Z,101411.69
2023-02-19T11:41:51.447Z,101414.88
2023-02-19T11:49:04.941Z,101429.47
2023-02-19T11:56:21.023Z,101419.00
2023-02-19T12:03:57.275Z,101418.31
2023-02-19T12:11:24.186Z,101429.13
2023-02-19T12:18:44.703Z,101447.97
2023-02-19T12:25:48.684Z,101447.31
2023-02-19T12:33:25.911Z,101471.34
2023-02-19T12:40:45.983Z,101467.44
2023-02-19T12:48:05.856Z,101485.69
2023-02-19T12:55:22.833Z,101486.28
2023-02-19T13:02:29.091Z,101479.66
2023-02-19T13:09:58.813Z,101502.16
2023-02-19T13:17:03.841Z,101503.56
2023-02-19T13:24:13.870Z,101505.69
2023-02-19T13:31:40.391Z,101512.84
2023-02-19T13:38:45.925Z,101513.78
2023-02-19T13:45:47.577Z,101509.88
2023-02-19T13:52:49.937Z,101526.41
2023-02-19T13:59:51.639Z,101537.03
2023-02-19T14:07:05.418Z,101558.56
2023-02-19T14:14:26.797Z,101551.66
2023-02-19T14:21:36.306Z,101556.22
2023-02-19T14:28:43.275Z,101555.38
2023-02-19T14:35:46.389Z,101556.63
2023-02-19T14:42:48.615Z,101550.56
2023-02-19T14:49:51.943Z,101559.69
2023-02-19T14:56:53.542Z,101567.63
2023-02-19T15:03:56.475Z,101585.09
2023-02-19T15:10:58.099Z,101593.47
2023-02-19T15:17:59.993Z,101583.94
2023-02-19T15:25:02.499Z,101590.91
2023-02-19T15:32:17.422Z,101599.66
2023-02-19T15:39:23.111Z,101592.34
2023-02-19T15:46:25.030Z,101604.00
2023-02-19T15:53:29.610Z,101621.09
2023-02-19T16:00:37.265Z,101621.22
2023-02-19T16:07:38.850Z,101637.56
2023-02-19T16:14:40.394Z,101651.78
2023-02-19T16:21:42.906Z,101664.78
2023-02-19T16:28:44.526Z,101677.94
2023-02-19T16:35:48.032Z,101685.97
2023-02-19T16:42:49.613Z,101699.59
2023-02-19T16:49:51.255Z,101703.38
2023-02-19T16:56:52.796Z,101701.81
2023-02-19T17:03:58.299Z,101719.19
2023-02-19T17:11:02.087Z,101717.38
2023-02-19T17:18:03.744Z,101718.41
2023-02-19T17:25:05.614Z,101721.47
2023-02-19T17:32:07.319Z,101726.09
2023-02-19T17:39:14.960Z,101724.41
2023-02-19T17:46:21.745Z,101734.25
2023-02-19T17:53:23.281Z,101750.69
2023-02-19T18:00:27.008Z,101746.16
2023-02-19T18:07:28.656Z,101758.75
2023-02-19T18:14:31.131Z,101755.19
2023-02-19T18:21:32.704Z,101764.13
2023-02-19T18:28:34.762Z,101774.94
2023-02-19T18:35:36.408Z,101774.75
2023-02-19T18:42:37.944Z,101779.56
2023-02-19T18:49:39.529Z,101777.78
2023-02-19T18:56:44.433Z,101783.59
2023-02-19T19:03:46.111Z,101784.25
2023-02-19T19:10:47.622Z,101781.84
2023-02-19T19:17:49.485Z,101779.41
2023-02-19T19:24:51.094Z,101786.41
2023-02-19T19:31:52.876Z,101783.69
2023-02-19T19:38:54.477Z,101771.97
2023-02-19T19:45:56.220Z,101774.16
2023-02-19T19:52:57.889Z,101774.13
2023-02-19T19:59:59.517Z,101776.72
2023-02-19T20:07:01.687Z,101769.19
2023-02-19T20:14:03.300Z,101762.47
2023-02-19T20:21:05.311Z,101771.47
2023-02-19T20:28:06.827Z,101789.44
2023-02-19T20:35:08.436Z,101783.78
2023-02-19T20:42:09.962Z,101792.91
2023-02-19T20:49:12.288Z,101797.19
2023-02-19T20:56:14.203Z,101797.31
2023-02-19T21:03:15.832Z,101795.75
2023-02-19T21:10:17.552Z,101803.81
2023-02-19T21:17:19.055Z,101804.16
2023-02-19T21:24:20.609Z,101786.44
2023-02-19T21:31:24.514Z,101774.66
2023-02-19T21:38:26.967Z,101769.59
2023-02-19T21:45:28.623Z,101760.34
2023-02-19T21:52:31.062Z,101753.28
2023-02-19T21:59:32.811Z,101751.56
2023-02-19T22:06:34.403Z,101733.94
2023-02-19T22:13:35.919Z,101732.03
2023-02-19T22:20:39.344Z,101707.09
2023-02-19T22:27:40.875Z,101705.09
2023-02-19T22:34:42.559Z,101707.00
2023-02-19T22:41:44.198Z,101700.75
2023-02-19T22:48:45.916Z,101723.47
2023-02-19T22:55:47.414Z,101746.69
2023-02-19T23:02:48.998Z,101729.25
2023-02-19T23:09:51.043Z,101735.00
2023-02-19T23:16:52.636Z,101738.03
2023-02-19T23:23:54.176Z,101726.25
2023-02-19T23:30:55.775Z,101731.22
2023-02-19T23:37:57.384Z,101713.53
2023-02-19T23:44:58.991Z,101711.44
2023-02-19T23:52:00.565Z,101703.88
2023-02-19T23:59:02.137Z,101683.50
